Albatros — DITX — position and weather

sailwx.info

Track history (hours):
 
Tides and Currents Weather Stations Pressure Air Temp Water Temp Dewpoint Dewpoint Depression Visibility Wind Speed Wind Dir Waves Ship Positions

Albatros

Last reported at 2016-Aug-20 10:18 UTC. Time now 2016-Aug-24 02:41 UTC.
Position N 54°41' E 013°10'.

Length 16 m; draft 2 m.

MMSI: 211226200.

Date/timePositionNaut miles runAvg speedWind from/ knotsBaromVisibWave heightAir tempDewpointWater temp
2016-Aug-20 10:18N 54°41' E 013°10'2 1.7
2016-Aug-20 09:26N 54°42' E 013°13'1 1.3
2016-Aug-20 08:33N 54°42' E 013°11'0 0.4
2016-Aug-20 07:31N 54°41' E 013°10'3 2.9
2016-Aug-20 06:33N 54°39' E 013°10'6 5.9
2016-Aug-20 05:33N 54°33' E 013°08'  
2016-Aug-17 09:15N 54°42' E 013°11'0 0.7
2016-Aug-17 08:33N 54°41' E 013°11'0 0.2
2016-Aug-17 07:26N 54°42' E 013°10'10 5.0
2016-Aug-17 05:31N 54°32' E 013°08'  
Track history (hours):
 
Tides and Currents Weather Stations Pressure Air Temp Water Temp Dewpoint Dewpoint Depression Visibility Wind Speed Wind Dir Waves Ship Positions

Albatros

Last reported at 2016-Aug-20 10:18 UTC. Time now 2016-Aug-24 02:41 UTC.
Position N 54°41' E 013°10'.

Length 16 m; draft 2 m.

MMSI: 211226200.

Date/timePositionNaut miles runAvg speedWind from/ knotsBaromVisibWave heightAir tempDewpointWater temp
2016-Aug-20 10:18N 54°41' E 013°10'2 1.7
2016-Aug-20 09:26N 54°42' E 013°13'1 1.3
2016-Aug-20 08:33N 54°42' E 013°11'0 0.4
2016-Aug-20 07:31N 54°41' E 013°10'3 2.9
2016-Aug-20 06:33N 54°39' E 013°10'6 5.9
2016-Aug-20 05:33N 54°33' E 013°08'  
2016-Aug-17 09:15N 54°42' E 013°11'0 0.7
2016-Aug-17 08:33N 54°41' E 013°11'0 0.2
2016-Aug-17 07:26N 54°42' E 013°10'10 5.0
2016-Aug-17 05:31N 54°32' E 013°08'  

Dump ship's entire track history